| time (UTC) | temp C | wind direction | speed KPH | gust KPH | rain 1hr cm | rain 24hr cm | rain mn cm | humidity % | barometer mb |
| 20260503184532 | 13 | 226 | 9.7 | 16.1 | 0.00 | 0.00 | 0.00 | 40 | 1019.8 |
| 20260503184032 | 13 | 323 | 9.7 | 16.1 | 0.00 | 0.00 | 0.00 | 39 | 1019.9 |
| 20260503183530 | 13 | 19 | 4.8 | 14.5 | 0.00 | 0.00 | 0.00 | 43 | 1020.0 |
| 20260503183038 | 13 | 1 | 1.6 | 16.1 | 0.00 | 0.00 | 0.00 | 41 | 1020.0 |
| 20260503182529 | 13 | 309 | 6.4 | 20.9 | 0.00 | 0.00 | 0.00 | 43 | 1020.0 |
| 20260503182030 | 12 | 238 | 6.4 | 20.9 | 0.00 | 0.00 | 0.00 | 41 | 1020.0 |
| 20260503181549 | 12 | 321 | 6.4 | 20.9 | 0.00 | 0.00 | 0.00 | 43 | 1020.1 |
| 20260503181028 | 12 | 260 | 6.4 | 20.9 | 0.00 | 0.00 | 0.00 | 45 | 1020.2 |
| 20260503180530 | 12 | 19 | 1.6 | 14.5 | 0.00 | 0.00 | 0.00 | 41 | 1020.1 |
| 20260503180040 | 12 | 238 | 8.0 | 17.7 | 0.00 | 0.00 | 0.00 | 38 | 1020.3 |
| 20260503175531 | 12 | 268 | 4.8 | 17.7 | 0.00 | 0.00 | 0.00 | 41 | 1020.5 |
| 20260503175027 | 12 | 54 | 1.6 | 12.9 | 0.00 | 0.00 | 0.00 | 48 | 1020.4 |
| 20260503174525 | 11 | 286 | 4.8 | 14.5 | 0.00 | 0.00 | 0.00 | 44 | 1020.3 |
| 20260503174027 | 11 | 304 | 6.4 | 17.7 | 0.00 | 0.00 | 0.00 | 42 | 1020.4 |
| 20260503173524 | 12 | 337 | 4.8 | 20.9 | 0.00 | 0.00 | 0.00 | 45 | 1020.4 |
| 20260503173024 | 12 | 331 | 8.0 | 16.1 | 0.00 | 0.00 | 0.00 | 43 | 1020.3 |
| 20260503172522 | 12 | 321 | 1.6 | 9.7 | 0.00 | 0.00 | 0.00 | 50 | 1020.4 |
| 20260503172022 | 11 | 300 | 1.6 | 12.9 | 0.00 | 0.00 | 0.00 | 56 | 1020.4 |
| 20260503171525 | 11 | 215 | 3.2 | 12.9 | 0.00 | 0.00 | 0.00 | 44 | 1020.5 |
| 20260503171021 | 11 | 345 | 6.4 | 11.3 | 0.00 | 0.00 | 0.00 | 47 | 1020.4 |
| 20260503170522 | 11 | 286 | 3.2 | 11.3 | 0.00 | 0.00 | 0.00 | 49 | 1020.6 |
| 20260503150600 | 7 | 224 | 8.0 | 14.5 | 0.00 | 0.00 | 0.00 | 50 | 1022.2 |
| 20260503131035 | 5 | 326 | 12.9 | 25.7 | 0.00 | 0.00 | 0.00 | 56 | 1021.8 |
| 20260503130535 | 5 | 1 | 12.9 | 25.7 | 0.00 | 0.00 | 0.00 | 59 | 1021.8 |
| 20260503110503 | 2 | 334 | 3.2 | 9.7 | 0.00 | 0.00 | 0.00 | 66 | 1020.4 |
| 20260503081531 | 3 | 233 | 1.6 | 8.0 | 0.00 | 0.00 | 0.00 | 65 | 1017.9 |
| 20260503081033 | 3 | 256 | 4.8 | 9.7 | 0.00 | 0.00 | 0.00 | 65 | 1017.9 |
| 20260503080529 | 3 | 321 | 1.6 | 12.9 | 0.00 | 0.00 | 0.00 | 64 | 1017.7 |
| 20260503072524 | 4 | 278 | 6.4 | 12.9 | 0.00 | 0.00 | 0.00 | 61 | 1017.5 |
| 20260503072027 | 4 | 298 | 4.8 | 16.1 | 0.00 | 0.00 | 0.00 | 61 | 1017.4 |
| 20260503071522 | 4 | 332 | 8.0 | 16.1 | 0.00 | 0.00 | 0.00 | 61 | 1017.4 |
| 20260503071022 | 4 | 291 | 3.2 | 11.3 | 0.00 | 0.00 | 0.00 | 63 | 1017.3 |
| 20260503070525 | 4 | 317 | 4.8 | 9.7 | 0.00 | 0.00 | 0.00 | 64 | 1017.4 |
| 20260503055014 | 5 | 300 | 4.8 | 11.3 | 0.00 | 0.00 | 0.00 | 61 | 1017.5 |
| 20260503054518 | 5 | 319 | 3.2 | 11.3 | 0.00 | 0.00 | 0.00 | 61 | 1017.5 |
| 20260503054012 | 5 | 305 | 3.2 | 11.3 | 0.00 | 0.00 | 0.00 | 61 | 1017.5 |
| 20260503053512 | 5 | 1 | 3.2 | 11.3 | 0.00 | 0.00 | 0.00 | 61 | 1017.5 |
| 20260503053016 | 5 | 301 | 6.4 | 11.3 | 0.00 | 0.00 | 0.00 | 61 | 1017.5 |
| 20260503052511 | 5 | 300 | 6.4 | 11.3 | 0.00 | 0.00 | 0.00 | 61 | 1017.4 |
| 20260503052011 | 5 | 321 | 4.8 | 9.7 | 0.00 | 0.00 | 0.00 | 61 | 1017.4 |
| 20260503051510 | 5 | 331 | 3.2 | 9.7 | 0.00 | 0.00 | 0.00 | 61 | 1017.3 |
| 20260503051009 | 5 | 1 | 4.8 | 9.7 | 0.00 | 0.00 | 0.00 | 61 | 1017.3 |
| 20260503050509 | 5 | 341 | 4.8 | 8.0 | 0.00 | 0.00 | 0.00 | 61 | 1017.3 |
| 20260503050008 | 5 | 338 | 4.8 | 9.7 | 0.00 | 0.00 | 0.00 | 61 | 1017.3 |
| 20260503045513 | 5 | 11 | 3.2 | 11.3 | 0.00 | 0.00 | 0.00 | 60 | 1017.2 |
| 20260503045007 | 5 | 6 | 6.4 | 14.5 | 0.00 | 0.00 | 0.00 | 61 | 1017.2 |
| 20260503044507 | 5 | 344 | 6.4 | 14.5 | 0.00 | 0.00 | 0.00 | 60 | 1017.1 |
| 20260503044005 | 5 | 340 | 4.8 | 16.1 | 0.00 | 0.00 | 0.00 | 60 | 1017.2 |
| 20260503043504 | 5 | 329 | 6.4 | 16.1 | 0.00 | 0.00 | 0.00 | 60 | 1017.2 |
| 20260503043004 | 5 | 315 | 6.4 | 12.9 | 0.00 | 0.00 | 0.00 | 59 | 1017.1 |
| 20260503042502 | 5 | 319 | 3.2 | 9.7 | 0.00 | 0.00 | 0.00 | 59 | 1017.2 |
| 20260503042002 | 5 | 317 | 3.2 | 8.0 | 0.00 | 0.00 | 0.00 | 58 | 1017.1 |
| 20260503041502 | 5 | 329 | 4.8 | 9.7 | 0.00 | 0.00 | 0.00 | 58 | 1017.2 |
| 20260503041102 | 6 | 271 | 3.2 | 12.9 | 0.00 | 0.00 | 0.00 | 58 | 1017.2 |
| 20260503040559 | 6 | 325 | 6.4 | 12.9 | 0.00 | 0.00 | 0.00 | 58 | 1017.2 |
| 20260503040058 | 6 | 15 | 3.2 | 11.3 | 0.00 | 0.00 | 0.00 | 58 | 1017.2 |
| 20260503035602 | 6 | 313 | 4.8 | 12.9 | 0.00 | 0.00 | 0.00 | 57 | 1017.1 |
| 20260503035058 | 6 | 310 | 4.8 | 12.9 | 0.00 | 0.00 | 0.00 | 57 | 1017.2 |
| 20260503034557 | 6 | 308 | 4.8 | 9.7 | 0.00 | 0.00 | 0.00 | 57 | 1017.1 |
| 20260503034057 | 6 | 9 | 3.2 | 11.3 | 0.00 | 0.00 | 0.00 | 57 | 1017.2 |
| 20260503033103 | 6 | 315 | 8.0 | 14.5 | 0.00 | 0.00 | 0.00 | 57 | 1017.1 |
| 20260503032551 | 6 | 292 | 4.8 | 11.3 | 0.00 | 0.00 | 0.00 | 57 | 1017.1 |
| 20260503032048 | 6 | 261 | 3.2 | 8.0 | 0.00 | 0.00 | 0.00 | 56 | 1017.1 |
| 20260503031548 | 6 | 268 | 3.2 | 8.0 | 0.00 | 0.00 | 0.00 | 56 | 1017.0 |
| 20260503031048 | 6 | 321 | 3.2 | 8.0 | 0.00 | 0.00 | 0.00 | 56 | 1016.8 |
| 20260503030548 | 6 | 321 | 3.2 | 8.0 | 0.00 | 0.00 | 0.00 | 55 | 1016.9 |
| 20260503030050 | 6 | 1 | 1.6 | 8.0 | 0.00 | 0.00 | 0.00 | 56 | 1016.8 |
| 20260503025547 | 6 | 321 | 3.2 | 9.7 | 0.00 | 0.00 | 0.00 | 55 | 1016.8 |
| 20260503025047 | 6 | 306 | 3.2 | 9.7 | 0.00 | 0.00 | 0.00 | 55 | 1016.8 |
| 20260503024546 | 6 | 345 | 3.2 | 8.0 | 0.00 | 0.00 | 0.00 | 55 | 1016.8 |
| 20260503024046 | 6 | 305 | 3.2 | 8.0 | 0.00 | 0.00 | 0.00 | 54 | 1016.9 |
| 20260503023546 | 6 | 321 | 3.2 | 9.7 | 0.00 | 0.00 | 0.00 | 54 | 1016.9 |
| 20260503023051 | 6 | 252 | 3.2 | 9.7 | 0.00 | 0.00 | 0.00 | 54 | 1016.8 |
| 20260503022546 | 6 | 238 | 3.2 | 9.7 | 0.00 | 0.00 | 0.00 | 54 | 1016.9 |
| 20260503022046 | 6 | 320 | 3.2 | 8.0 | 0.00 | 0.00 | 0.00 | 54 | 1016.9 |
| 20260503021551 | 6 | 304 | 3.2 | 14.5 | 0.00 | 0.00 | 0.00 | 54 | 1016.9 |
| 20260503021046 | 6 | 339 | 4.8 | 14.5 | 0.00 | 0.00 | 0.00 | 54 | 1017.0 |
| 20260503020546 | 6 | 330 | 4.8 | 9.7 | 0.00 | 0.00 | 0.00 | 53 | 1017.0 |
| 20260503020054 | 7 | 282 | 1.6 | 6.4 | 0.00 | 0.00 | 0.00 | 53 | 1016.9 |
| 20260503015549 | 7 | 304 | 3.2 | 6.4 | 0.00 | 0.00 | 0.00 | 53 | 1017.0 |
| 20260503015044 | 7 | 307 | 0.0 | 9.7 | 0.00 | 0.00 | 0.00 | 53 | 1017.0 |
| 20260503014100 | 7 | 304 | 3.2 | 8.0 | 0.00 | 0.00 | 0.00 | 51 | 1016.8 |
| 20260503013600 | 7 | 309 | 1.6 | 11.3 | 0.00 | 0.00 | 0.00 | 52 | 1016.8 |
| 20260503013100 | 7 | 312 | 3.2 | 14.5 | 0.00 | 0.00 | 0.00 | 50 | 1016.8 |
| 20260503012602 | 7 | 311 | 3.2 | 14.5 | 0.00 | 0.00 | 0.00 | 51 | 1016.7 |
| 20260503012059 | 7 | 313 | 4.8 | 12.9 | 0.00 | 0.00 | 0.00 | 52 | 1016.5 |
| 20260503011608 | 7 | 264 | 6.4 | 12.9 | 0.00 | 0.00 | 0.00 | 52 | 1016.5 |
| 20260503011102 | 7 | 278 | 4.8 | 12.9 | 0.00 | 0.00 | 0.00 | 51 | 1016.4 |
| 20260503010600 | 7 | 292 | 4.8 | 12.9 | 0.00 | 0.00 | 0.00 | 50 | 1016.4 |
| 20260503010103 | 7 | 224 | 3.2 | 9.7 | 0.00 | 0.00 | 0.00 | 51 | 1016.4 |
| 20260503005600 | 8 | 301 | 3.2 | 8.0 | 0.00 | 0.00 | 0.00 | 51 | 1016.4 |
| 20260503005058 | 8 | 261 | 1.6 | 9.7 | 0.00 | 0.00 | 0.00 | 51 | 1016.2 |
| 20260503004602 | 8 | 248 | 3.2 | 12.9 | 0.00 | 0.00 | 0.00 | 51 | 1016.2 |
| 20260503004057 | 8 | 295 | 4.8 | 12.9 | 0.00 | 0.00 | 0.00 | 50 | 1016.1 |
| 20260503003557 | 8 | 314 | 1.6 | 11.3 | 0.00 | 0.00 | 0.00 | 51 | 1016.1 |
| 20260503003103 | 8 | 305 | 3.2 | 11.3 | 0.00 | 0.00 | 0.00 | 51 | 1016.0 |
| 20260503002557 | 8 | 333 | 1.6 | 9.7 | 0.00 | 0.00 | 0.00 | 50 | 1016.0 |
| 20260503002059 | 8 | 323 | 3.2 | 9.7 | 0.00 | 0.00 | 0.00 | 51 | 1015.8 |
| 20260503001604 | 8 | 301 | 3.2 | 12.9 | 0.00 | 0.00 | 0.00 | 49 | 1015.8 |
| 20260503001057 | 8 | 309 | 3.2 | 12.9 | 0.00 | 0.00 | 0.00 | 49 | 1015.8 |
| 20260503000557 | 8 | 340 | 4.8 | 14.5 | 0.00 | 0.00 | 0.00 | 48 | 1015.6 |
| 20260503000055 | 9 | 290 | 6.4 | 16.1 | 0.00 | 0.00 | 0.00 | 48 | 1015.7 |
| 20260502235555 | 9 | 293 | 3.2 | 16.1 | 0.00 | 0.00 | 0.00 | 49 | 1015.6 |
| 20260502235058 | 9 | 324 | 8.0 | 14.5 | 0.00 | 0.00 | 0.00 | 48 | 1015.4 |
| 20260502234557 | 9 | 252 | 4.8 | 14.5 | 0.00 | 0.00 | 0.00 | 47 | 1015.5 |
| 20260502234057 | 9 | 236 | 6.4 | 17.7 | 0.00 | 0.00 | 0.00 | 47 | 1015.4 |
| 20260502233555 | 10 | 345 | 4.8 | 19.3 | 0.00 | 0.00 | 0.00 | 47 | 1015.3 |
| 20260502233056 | 10 | 319 | 9.7 | 19.3 | 0.00 | 0.00 | 0.00 | 47 | 1015.1 |
| 20260502232555 | 10 | 216 | 8.0 | 19.3 | 0.00 | 0.00 | 0.00 | 46 | 1015.1 |
| 20260502232055 | 10 | 277 | 8.0 | 16.1 | 0.00 | 0.00 | 0.00 | 47 | 1014.9 |
| 20260502231558 | 10 | 274 | 8.0 | 17.7 | 0.00 | 0.00 | 0.00 | 45 | 1014.8 |
| 20260502231057 | 10 | 298 | 8.0 | 22.5 | 0.00 | 0.00 | 0.00 | 45 | 1014.8 |
| 20260502230554 | 11 | 326 | 8.0 | 16.1 | 0.00 | 0.00 | 0.00 | 46 | 1014.8 |
| 20260502230054 | 11 | 328 | 6.4 | 24.1 | 0.00 | 0.00 | 0.00 | 47 | 1014.8 |
| 20260502225553 | 11 | 282 | 8.0 | 24.1 | 0.00 | 0.00 | 0.00 | 45 | 1014.7 |
| 20260502225053 | 11 | 245 | 8.0 | 20.9 | 0.00 | 0.00 | 0.00 | 45 | 1014.5 |
| 20260502224556 | 11 | 314 | 11.3 | 20.9 | 0.00 | 0.00 | 0.00 | 44 | 1014.5 |
| 20260502224053 | 11 | 295 | 9.7 | 25.7 | 0.00 | 0.00 | 0.00 | 45 | 1014.4 |
| 20260502223553 | 11 | 330 | 11.3 | 25.7 | 0.00 | 0.00 | 0.00 | 45 | 1014.3 |
| 20260502223053 | 12 | 283 | 11.3 | 22.5 | 0.00 | 0.00 | 0.00 | 45 | 1014.3 |
| 20260502222553 | 12 | 328 | 9.7 | 22.5 | 0.00 | 0.00 | 0.00 | 46 | 1014.3 |
| 20260502222052 | 12 | 1 | 8.0 | 24.1 | 0.00 | 0.00 | 0.00 | 44 | 1014.4 |
| 20260502221552 | 12 | 272 | 6.4 | 24.1 | 0.00 | 0.00 | 0.00 | 45 | 1014.3 |
| 20260502221052 | 12 | 284 | 8.0 | 24.1 | 0.00 | 0.00 | 0.00 | 45 | 1014.3 |
| 20260502220555 | 12 | 305 | 8.0 | 24.1 | 0.00 | 0.00 | 0.00 | 46 | 1014.2 |
| 20260502220135 | 12 | 326 | 9.7 | 20.9 | 0.00 | 0.00 | 0.00 | 46 | 1014.3 |
| 20260502215553 | 12 | 290 | 6.4 | 19.3 | 0.00 | 0.00 | 0.00 | 46 | 1014.3 |
| 20260502215053 | 12 | 287 | 8.0 | 20.9 | 0.00 | 0.00 | 0.00 | 47 | 1014.2 |
| 20260502214552 | 12 | 254 | 8.0 | 20.9 | 0.00 | 0.00 | 0.00 | 46 | 1014.2 |
| 20260502214054 | 12 | 300 | 4.8 | 16.1 | 0.00 | 0.00 | 0.00 | 48 | 1014.0 |
| 20260502213551 | 12 | 307 | 6.4 | 19.3 | 0.00 | 0.00 | 0.00 | 46 | 1013.8 |
| 20260502213053 | 12 | 283 | 6.4 | 19.3 | 0.00 | 0.00 | 0.00 | 48 | 1013.8 |
| 20260502212551 | 12 | 301 | 9.7 | 22.5 | 0.00 | 0.00 | 0.00 | 45 | 1013.9 |
| 20260502212053 | 12 | 316 | 12.9 | 22.5 | 0.00 | 0.00 | 0.00 | 44 | 1013.8 |
| 20260502211551 | 12 | 337 | 9.7 | 24.1 | 0.00 | 0.00 | 0.00 | 46 | 1013.8 |
| 20260502211050 | 12 | 323 | 11.3 | 24.1 | 0.00 | 0.00 | 0.00 | 45 | 1013.8 |
| 20260502210550 | 12 | 311 | 11.3 | 19.3 | 0.00 | 0.00 | 0.00 | 45 | 1013.6 |
| 20260502210100 | 12 | 314 | 9.7 | 19.3 | 0.00 | 0.00 | 0.00 | 44 | 1013.5 |
| 20260502205549 | 12 | 1 | 9.7 | 19.3 | 0.00 | 0.00 | 0.00 | 45 | 1013.5 |
| 20260502205050 | 13 | 260 | 8.0 | 16.1 | 0.00 | 0.00 | 0.00 | 44 | 1013.5 |
| 20260502204601 | 13 | 319 | 6.4 | 16.1 | 0.00 | 0.00 | 0.00 | 47 | 1013.6 |
| 20260502204049 | 13 | 285 | 8.0 | 16.1 | 0.00 | 0.00 | 0.00 | 42 | 1013.5 |
| 20260502203549 | 13 | 263 | 8.0 | 16.1 | 0.00 | 0.00 | 0.00 | 43 | 1013.5 |
| 20260502203102 | 13 | 268 | 6.4 | 14.5 | 0.00 | 0.00 | 0.00 | 42 | 1013.3 |
| 20260502202549 | 13 | 314 | 6.4 | 12.9 | 0.00 | 0.00 | 0.00 | 44 | 1013.4 |
| 20260502202051 | 13 | 323 | 3.2 | 11.3 | 0.00 | 0.00 | 0.00 | 42 | 1013.4 |
| 20260502201549 | 12 | 337 | 6.4 | 11.3 | 0.00 | 0.00 | 0.00 | 42 | 1013.4 |
| 20260502201049 | 12 | 295 | 3.2 | 8.0 | 0.00 | 0.00 | 0.00 | 42 | 1013.4 |
| 20260502200549 | 13 | 271 | 3.2 | 12.9 | 0.00 | 0.00 | 0.00 | 42 | 1013.4 |
| 20260502200049 | 13 | 23 | 8.0 | 12.9 | 0.00 | 0.00 | 0.00 | 45 | 1013.2 |
| 20260502195547 | 13 | 330 | 3.2 | 8.0 | 0.00 | 0.00 | 0.00 | 47 | 1013.3 |
| 20260502195047 | 13 | 275 | 1.6 | 9.7 | 0.00 | 0.00 | 0.00 | 43 | 1013.3 |
| 20260502194553 | 14 | 311 | 4.8 | 9.7 | 0.00 | 0.00 | 0.00 | 45 | 1013.5 |
| 20260502194047 | 14 | 34 | 1.6 | 6.4 | 0.00 | 0.00 | 0.00 | 45 | 1013.3 |
| 20260502193547 | 14 | 172 | 1.6 | 8.0 | 0.00 | 0.00 | 0.00 | 47 | 1013.6 |
| 20260502193048 | 14 | 242 | 1.6 | 8.0 | 0.00 | 0.00 | 0.00 | 45 | 1013.6 |
| 20260502192550 | 14 | 242 | 1.6 | 8.0 | 0.00 | 0.00 | 0.00 | 45 | 1013.6 |
| 20260502192044 | 13 | 329 | 4.8 | 8.0 | 0.00 | 0.00 | 0.00 | 46 | 1013.6 |
| 20260502191544 | 13 | 326 | 1.6 | 14.5 | 0.00 | 0.00 | 0.00 | 46 | 1014.0 |
| 20260502191048 | 13 | 221 | 4.8 | 14.5 | 0.00 | 0.00 | 0.00 | 42 | 1014.0 |
| 20260502190544 | 13 | 327 | 1.6 | 16.1 | 0.00 | 0.00 | 0.00 | 41 | 1014.0 |
| 20260502190045 | 13 | 314 | 6.4 | 16.1 | 0.00 | 0.00 | 0.00 | 50 | 1014.0 |
| 20260502185541 | 13 | 29 | 3.2 | 11.3 | 0.00 | 0.00 | 0.00 | 47 | 1014.1 |
| 20260502185041 | 13 | 8 | 4.8 | 14.5 | 0.00 | 0.00 | 0.00 | 46 | 1014.1 |